createdAt,value
2019-03-26T00:00:34.480Z,10.91
2019-03-26T00:01:14.907Z,10.88
2019-03-26T00:01:55.266Z,10.98
2019-03-26T00:02:35.694Z,11.03
2019-03-26T00:03:16.102Z,10.99
2019-03-26T00:04:05.480Z,10.94
2019-03-26T00:04:36.953Z,10.99
2019-03-26T00:05:17.384Z,11.08
2019-03-26T00:05:57.832Z,10.98
2019-03-26T00:06:38.221Z,10.95
2019-03-26T00:07:18.659Z,10.99
2019-03-26T00:07:59.080Z,10.87
2019-03-26T00:08:39.484Z,10.88
2019-03-26T00:09:19.913Z,10.88
2019-03-26T00:10:00.406Z,10.88
2019-03-26T00:10:40.722Z,10.87
2019-03-26T00:11:21.200Z,10.99
2019-03-26T00:12:01.527Z,10.95
2019-03-26T00:12:41.928Z,10.95
2019-03-26T00:13:22.349Z,10.91
2019-03-26T00:14:05.495Z,10.91
2019-03-26T00:14:45.888Z,11.02
2019-03-26T00:15:26.499Z,11.11
2019-03-26T00:16:06.920Z,11.03
2019-03-26T00:16:49.070Z,11.08
2019-03-26T00:17:30.167Z,10.98
2019-03-26T00:18:10.552Z,10.99
2019-03-26T00:18:50.985Z,10.93
2019-03-26T00:19:33.375Z,10.98
2019-03-26T00:20:14.875Z,10.91
2019-03-26T00:20:55.313Z,10.87
2019-03-26T00:21:35.723Z,10.83
2019-03-26T00:22:16.141Z,10.86
2019-03-26T00:22:56.532Z,10.78
2019-03-26T00:23:36.936Z,10.72
2019-03-26T00:24:17.317Z,10.83
2019-03-26T00:25:01.343Z,10.9
2019-03-26T00:25:41.757Z,10.88
2019-03-26T00:26:22.101Z,10.93
2019-03-26T00:27:02.497Z,10.9
2019-03-26T00:27:42.880Z,10.88
2019-03-26T00:28:23.285Z,10.9
2019-03-26T00:29:03.636Z,10.83
2019-03-26T00:29:47.024Z,10.91
2019-03-26T00:30:27.509Z,10.88
2019-03-26T00:31:07.829Z,10.93
2019-03-26T00:31:48.229Z,10.91
2019-03-26T00:32:28.641Z,10.88
2019-03-26T00:33:09.077Z,10.88
2019-03-26T00:33:49.520Z,10.68
2019-03-26T00:34:29.967Z,10.7
2019-03-26T00:35:10.360Z,10.72
2019-03-26T00:35:50.787Z,10.75
2019-03-26T00:36:31.191Z,10.66
2019-03-26T00:37:11.583Z,10.66
2019-03-26T00:37:55.065Z,10.63
2019-03-26T00:38:35.439Z,10.68
2019-03-26T00:39:15.632Z,10.58
2019-03-26T00:39:56.020Z,10.51
2019-03-26T00:40:40.131Z,10.47
2019-03-26T00:41:18.750Z,10.46
2019-03-26T00:41:59.170Z,10.46
2019-03-26T00:42:39.511Z,10.58
2019-03-26T00:43:19.915Z,10.57
2019-03-26T00:44:02.049Z,10.62
2019-03-26T00:44:42.422Z,10.55
2019-03-26T00:45:22.756Z,10.69
2019-03-26T00:46:04.233Z,10.68
2019-03-26T00:46:46.689Z,10.72
2019-03-26T00:47:26.614Z,10.68
2019-03-26T00:48:07.008Z,10.7
2019-03-26T00:48:49.621Z,10.69
2019-03-26T00:49:29.975Z,10.66
2019-03-26T00:50:10.431Z,10.63
2019-03-26T00:50:50.847Z,10.69
2019-03-26T00:51:31.248Z,10.63
2019-03-26T00:52:11.580Z,10.58
2019-03-26T00:52:52.056Z,10.51
2019-03-26T00:53:32.422Z,10.52
2019-03-26T00:54:12.845Z,10.57
2019-03-26T00:54:53.282Z,10.46
2019-03-26T00:55:33.688Z,10.42
2019-03-26T00:56:14.099Z,10.47
2019-03-26T00:56:54.514Z,10.55
2019-03-26T00:57:34.939Z,10.52
2019-03-26T00:58:15.349Z,10.57
2019-03-26T00:58:55.748Z,10.55
2019-03-26T00:59:36.177Z,10.54
2019-03-26T01:00:16.596Z,10.69
2019-03-26T01:00:57.010Z,10.66
2019-03-26T01:01:37.408Z,10.57
2019-03-26T01:02:21.694Z,10.62
2019-03-26T01:03:03.071Z,10.66
2019-03-26T01:03:43.533Z,10.68
2019-03-26T01:04:32.458Z,10.57
2019-03-26T01:05:04.390Z,10.69
2019-03-26T01:05:44.766Z,10.57
2019-03-26T01:06:25.446Z,10.62
2019-03-26T01:07:05.917Z,10.62
2019-03-26T01:07:46.241Z,10.69
2019-03-26T01:08:26.625Z,10.7
2019-03-26T01:09:07.057Z,10.83
2019-03-26T01:09:47.436Z,10.81
2019-03-26T01:10:28.649Z,10.99
2019-03-26T01:11:11.062Z,10.9
2019-03-26T01:11:51.433Z,10.88
2019-03-26T01:12:31.805Z,10.93
2019-03-26T01:13:14.206Z,10.88
2019-03-26T01:13:54.584Z,10.8
2019-03-26T01:14:34.959Z,10.73
2019-03-26T01:15:15.461Z,10.7
2019-03-26T01:15:55.891Z,10.73
2019-03-26T01:16:36.282Z,10.73
2019-03-26T01:17:19.023Z,10.72
2019-03-26T01:17:59.409Z,10.76
2019-03-26T01:18:39.796Z,10.73
2019-03-26T01:19:20.221Z,10.7
2019-03-26T01:20:00.638Z,10.58
2019-03-26T01:20:41.074Z,10.51
2019-03-26T01:21:21.494Z,10.49
2019-03-26T01:22:02.820Z,10.49
2019-03-26T01:22:43.239Z,10.51
2019-03-26T01:23:23.657Z,10.51
2019-03-26T01:24:04.061Z,10.57
2019-03-26T01:24:44.456Z,10.55
2019-03-26T01:25:24.897Z,10.58
2019-03-26T01:26:05.300Z,10.55
2019-03-26T01:26:45.727Z,10.63
2019-03-26T01:27:26.157Z,10.66
2019-03-26T01:28:06.569Z,10.65
2019-03-26T01:28:46.988Z,10.72
2019-03-26T01:29:27.410Z,10.84
2019-03-26T01:30:07.823Z,10.88
2019-03-26T01:30:48.236Z,10.88
2019-03-26T01:31:30.032Z,10.83
2019-03-26T01:32:11.437Z,10.88
2019-03-26T01:32:53.582Z,10.91
2019-03-26T01:33:33.947Z,10.93
2019-03-26T01:34:14.365Z,10.87
2019-03-26T01:34:54.738Z,10.86
2019-03-26T01:35:35.149Z,10.88
2019-03-26T01:36:15.548Z,10.9
2019-03-26T01:36:55.955Z,10.88
2019-03-26T01:37:36.329Z,10.9
2019-03-26T01:38:16.728Z,10.87
2019-03-26T01:38:57.110Z,10.9
2019-03-26T01:39:37.551Z,10.93
2019-03-26T01:40:17.921Z,10.91
2019-03-26T01:40:58.322Z,10.91
2019-03-26T01:41:38.707Z,10.91
2019-03-26T01:42:19.112Z,10.9
2019-03-26T01:42:59.498Z,10.9
2019-03-26T01:43:39.912Z,10.87
2019-03-26T01:44:20.318Z,10.9
2019-03-26T01:45:00.750Z,10.94
2019-03-26T01:45:41.218Z,10.88
2019-03-26T01:46:21.579Z,10.9
2019-03-26T01:47:02.088Z,10.83
2019-03-26T01:47:42.453Z,10.8
2019-03-26T01:48:22.880Z,10.86
2019-03-26T01:49:03.288Z,10.88
2019-03-26T01:49:43.715Z,10.88
2019-03-26T01:50:24.131Z,10.87
2019-03-26T01:51:04.531Z,10.88
2019-03-26T01:51:44.942Z,10.86
2019-03-26T01:52:25.354Z,10.91
2019-03-26T01:53:05.788Z,10.83
2019-03-26T01:53:46.258Z,10.84
2019-03-26T01:54:26.574Z,10.72
2019-03-26T01:55:06.971Z,10.7
2019-03-26T01:55:47.404Z,10.66
2019-03-26T01:56:27.816Z,10.72
2019-03-26T01:57:08.243Z,10.7
2019-03-26T01:57:48.675Z,10.7
2019-03-26T01:58:29.098Z,10.68
2019-03-26T01:59:09.535Z,10.65
2019-03-26T01:59:49.948Z,10.58
2019-03-26T02:00:30.947Z,10.6
2019-03-26T02:01:11.482Z,10.55
2019-03-26T02:02:48.826Z,10.55
2019-03-26T02:03:29.208Z,10.6
2019-03-26T02:04:09.642Z,10.7
2019-03-26T02:05:00.085Z,10.66
2019-03-26T02:05:36.617Z,10.73
2019-03-26T02:06:17.003Z,10.78
2019-03-26T02:06:57.421Z,10.7
2019-03-26T02:07:38.979Z,10.72
2019-03-26T02:08:18.407Z,10.86
2019-03-26T02:08:58.804Z,10.75
2019-03-26T02:09:39.242Z,10.72
2019-03-26T02:10:19.595Z,10.73
2019-03-26T02:11:00.351Z,10.73
2019-03-26T02:11:40.728Z,10.65
2019-03-26T02:12:21.121Z,10.65
2019-03-26T02:13:01.535Z,10.69
2019-03-26T02:13:43.870Z,10.73
2019-03-26T02:14:24.287Z,10.68
2019-03-26T02:15:04.711Z,10.78
2019-03-26T02:15:45.135Z,10.72
2019-03-26T02:16:25.548Z,10.66
2019-03-26T02:17:06.031Z,10.7
2019-03-26T02:17:46.497Z,10.81
2019-03-26T02:18:26.922Z,10.88
2019-03-26T02:19:07.340Z,10.81
2019-03-26T02:19:47.778Z,10.73
2019-03-26T02:20:28.194Z,10.83
2019-03-26T02:21:08.571Z,10.86
2019-03-26T02:21:48.973Z,10.88
2019-03-26T02:22:29.369Z,10.87
2019-03-26T02:23:09.802Z,10.98
2019-03-26T02:23:50.222Z,10.87
2019-03-26T02:24:30.640Z,10.86
2019-03-26T02:25:11.419Z,10.86
2019-03-26T02:25:51.825Z,10.86
2019-03-26T02:26:32.575Z,10.88
2019-03-26T02:27:12.977Z,10.88
2019-03-26T02:27:53.344Z,10.9
2019-03-26T02:28:33.762Z,10.88
2019-03-26T02:29:14.245Z,10.91
2019-03-26T02:29:54.646Z,10.86
2019-03-26T02:30:35.065Z,10.84
2019-03-26T02:31:15.509Z,10.78
2019-03-26T02:31:55.993Z,10.91
2019-03-26T02:32:36.357Z,10.95
2019-03-26T02:33:16.764Z,10.93
2019-03-26T02:33:57.158Z,11.03
2019-03-26T02:34:37.589Z,11.03
2019-03-26T02:35:19.150Z,11.12
2019-03-26T02:35:58.419Z,11.09
2019-03-26T02:36:38.831Z,11.12
2019-03-26T02:37:19.260Z,11.13
2019-03-26T02:37:59.687Z,11.08
2019-03-26T02:38:40.117Z,11.19
2019-03-26T02:39:20.543Z,11.2
2019-03-26T02:40:00.958Z,11.2
2019-03-26T02:40:41.366Z,11.21
2019-03-26T02:41:21.802Z,11.16
2019-03-26T02:42:02.208Z,11.23
2019-03-26T02:42:42.642Z,11.38
2019-03-26T02:43:23.073Z,11.28
2019-03-26T02:44:03.484Z,11.31
2019-03-26T02:44:43.904Z,11.27
2019-03-26T02:45:24.365Z,11.26
2019-03-26T02:46:04.722Z,11.3
2019-03-26T02:46:45.116Z,11.24
2019-03-26T02:47:25.545Z,11.23
2019-03-26T02:48:06.036Z,11.21
2019-03-26T02:48:46.394Z,11.21
2019-03-26T02:49:26.820Z,11.09
2019-03-26T02:50:07.271Z,11.12
2019-03-26T02:50:47.639Z,11.09
2019-03-26T02:51:28.090Z,11.09
2019-03-26T02:52:08.522Z,11.2
2019-03-26T02:52:48.945Z,11.12
2019-03-26T02:53:29.370Z,11.12
2019-03-26T02:54:09.762Z,11.16
2019-03-26T02:54:50.223Z,11.12
2019-03-26T02:55:30.608Z,11.02
2019-03-26T02:56:11.025Z,11.06
2019-03-26T02:56:51.444Z,11.03
2019-03-26T02:57:31.880Z,11.03
2019-03-26T02:58:12.305Z,11.08
2019-03-26T02:58:52.732Z,11.09
2019-03-26T02:59:33.149Z,11.09
2019-03-26T03:00:13.538Z,11.08
2019-03-26T03:00:53.949Z,11.08
2019-03-26T03:01:34.359Z,11.03
2019-03-26T03:02:14.776Z,11.06
2019-03-26T03:02:55.182Z,11.05
2019-03-26T03:03:35.613Z,11.08
2019-03-26T03:04:16.043Z,11.17
2019-03-26T03:04:56.451Z,11.16
2019-03-26T03:05:36.850Z,11.17
2019-03-26T03:06:17.278Z,11.11
2019-03-26T03:06:57.704Z,11.03
2019-03-26T03:07:38.188Z,11.13
2019-03-26T03:08:18.572Z,11.2
2019-03-26T03:08:58.989Z,11.23
2019-03-26T03:09:39.411Z,11.19
2019-03-26T03:10:19.933Z,11.13
2019-03-26T03:11:00.344Z,11.23
2019-03-26T03:11:40.776Z,11.2
2019-03-26T03:12:21.203Z,11.28
2019-03-26T03:13:01.583Z,11.33
2019-03-26T03:13:42.006Z,11.39
2019-03-26T03:14:22.397Z,11.42
2019-03-26T03:15:02.802Z,11.38
2019-03-26T03:15:43.191Z,11.39
2019-03-26T03:16:23.613Z,11.3
2019-03-26T03:17:04.031Z,11.33
2019-03-26T03:17:44.467Z,11.21
2019-03-26T03:18:24.887Z,11.19
2019-03-26T03:19:05.307Z,11.24
2019-03-26T03:19:45.731Z,11.27
2019-03-26T03:20:26.234Z,11.31
2019-03-26T03:21:06.522Z,11.27
2019-03-26T03:21:46.903Z,11.28
2019-03-26T03:22:27.303Z,11.23
2019-03-26T03:23:07.692Z,11.26
2019-03-26T03:23:48.099Z,11.2
2019-03-26T03:24:28.496Z,11.26
2019-03-26T03:25:08.925Z,11.23
2019-03-26T03:25:49.381Z,11.26
2019-03-26T03:26:29.774Z,11.33
2019-03-26T03:27:10.173Z,11.26
2019-03-26T03:27:50.962Z,11.3
2019-03-26T03:28:31.401Z,11.3
2019-03-26T03:29:11.805Z,11.21
2019-03-26T03:29:53.783Z,11.19
2019-03-26T03:30:34.191Z,11.21
2019-03-26T03:31:15.515Z,11.16
2019-03-26T03:31:55.893Z,11.19
2019-03-26T03:32:36.278Z,11.12
2019-03-26T03:33:17.373Z,11.19
2019-03-26T03:33:57.881Z,11.19
2019-03-26T03:34:38.281Z,11.16
2019-03-26T03:35:18.695Z,11.19
2019-03-26T03:35:59.106Z,11.11
2019-03-26T03:36:39.569Z,11.21
2019-03-26T03:37:19.951Z,11.11
2019-03-26T03:38:00.387Z,11.21
2019-03-26T03:38:41.473Z,11.23
2019-03-26T03:39:21.219Z,11.3
2019-03-26T03:40:01.673Z,11.33
2019-03-26T03:40:42.087Z,11.27
2019-03-26T03:41:22.525Z,11.26
2019-03-26T03:42:02.923Z,11.23
2019-03-26T03:42:43.329Z,11.21
2019-03-26T03:43:23.760Z,11.26
2019-03-26T03:44:04.178Z,11.28
2019-03-26T03:44:44.577Z,11.19
2019-03-26T03:45:24.978Z,11.16
2019-03-26T03:46:05.692Z,11.16
2019-03-26T03:46:47.689Z,11.13
2019-03-26T03:47:28.074Z,11.09
2019-03-26T03:48:08.477Z,11.09
2019-03-26T03:48:48.877Z,11.08
2019-03-26T03:49:29.303Z,10.99
2019-03-26T03:50:09.712Z,10.99
2019-03-26T03:50:50.121Z,11.09
2019-03-26T03:51:30.552Z,11.05
2019-03-26T03:52:10.967Z,11.16
2019-03-26T03:52:51.387Z,11.16
2019-03-26T03:53:31.807Z,11.24
2019-03-26T03:54:12.238Z,11.24
2019-03-26T03:54:52.666Z,11.2
2019-03-26T03:55:33.099Z,11.21
2019-03-26T03:56:13.556Z,11.23
2019-03-26T03:56:54.823Z,11.21
2019-03-26T03:57:35.426Z,11.23
2019-03-26T03:58:19.083Z,11.16
2019-03-26T03:59:00.914Z,11.23
2019-03-26T03:59:41.269Z,11.16
2019-03-26T04:00:21.678Z,11.13
2019-03-26T04:01:02.120Z,11.11
2019-03-26T04:01:42.551Z,11.11
2019-03-26T04:02:26.643Z,11.09
2019-03-26T04:03:07.022Z,11.06
2019-03-26T04:03:48.201Z,11.11
2019-03-26T04:04:29.915Z,11.06
2019-03-26T04:05:10.565Z,11.01
2019-03-26T04:06:07.585Z,10.95
2019-03-26T04:06:31.315Z,10.94
2019-03-26T04:07:11.711Z,11.01
2019-03-26T04:07:53.833Z,11.02
2019-03-26T04:08:34.535Z,10.88
2019-03-26T04:09:14.730Z,10.98
2019-03-26T04:09:55.109Z,10.95
2019-03-26T04:10:35.519Z,10.93
2019-03-26T04:11:15.930Z,10.98
2019-03-26T04:11:57.323Z,10.86
2019-03-26T04:12:37.572Z,10.91
2019-03-26T04:13:18.937Z,10.91
2019-03-26T04:13:59.273Z,11.03
2019-03-26T04:14:39.658Z,10.98
2019-03-26T04:15:20.060Z,10.98
2019-03-26T04:16:00.466Z,11.11
2019-03-26T04:16:40.916Z,11.12
2019-03-26T04:17:21.456Z,11.06
2019-03-26T04:18:01.862Z,11.08
2019-03-26T04:18:42.268Z,11.16
2019-03-26T04:19:22.692Z,11.05
2019-03-26T04:20:03.114Z,11.01
2019-03-26T04:20:43.526Z,11.01
2019-03-26T04:21:23.943Z,11.01
2019-03-26T04:22:04.376Z,10.95
2019-03-26T04:22:44.795Z,11.05
2019-03-26T04:23:25.181Z,11.08
2019-03-26T04:24:05.560Z,10.94
2019-03-26T04:24:45.977Z,11.17
2019-03-26T04:25:26.365Z,11.17
2019-03-26T04:26:06.985Z,11.21
2019-03-26T04:26:47.367Z,11.21
2019-03-26T04:27:27.774Z,11.2
2019-03-26T05:06:40.094Z,9.95
2019-03-26T05:07:20.342Z,9.93
2019-03-26T05:08:00.743Z,9.98
2019-03-26T05:08:41.147Z,9.95
2019-03-26T05:09:21.573Z,9.93
2019-03-26T05:10:01.979Z,9.96
2019-03-26T05:10:42.399Z,9.86
2019-03-26T05:11:22.803Z,9.86
2019-03-26T05:12:03.252Z,9.98
2019-03-26T05:12:43.646Z,10.01
2019-03-26T05:13:24.070Z,10.04
2019-03-26T05:14:04.476Z,10.04
2019-03-26T05:14:44.937Z,10.02
2019-03-26T05:15:25.273Z,10.04
2019-03-26T05:16:05.669Z,10.16
2019-03-26T05:16:46.125Z,10.13
2019-03-26T05:17:26.555Z,10.18
2019-03-26T05:18:06.954Z,10.17
2019-03-26T05:18:47.370Z,10.2
2019-03-26T05:21:01.818Z,10.35
2019-03-26T05:21:43.666Z,10.36
2019-03-26T05:22:24.601Z,10.36
2019-03-26T05:24:36.705Z,10.43
2019-03-26T05:25:17.071Z,10.46
2019-03-26T05:25:57.451Z,10.58
2019-03-26T05:26:37.857Z,10.58
2019-03-26T05:27:18.262Z,10.57
2019-03-26T05:27:58.696Z,10.66
2019-03-26T05:28:39.101Z,10.6
2019-03-26T05:29:19.554Z,10.58
2019-03-26T05:29:59.956Z,10.69
2019-03-26T05:30:40.363Z,10.76
2019-03-26T05:31:20.891Z,10.78
2019-03-26T05:32:01.314Z,10.66
2019-03-26T05:32:41.738Z,10.84
2019-03-26T05:33:22.146Z,10.84
2019-03-26T05:34:02.570Z,10.88
2019-03-26T05:34:42.958Z,10.81
2019-03-26T05:35:23.372Z,10.72
2019-03-26T05:36:03.803Z,10.72
2019-03-26T05:36:50.983Z,10.84
2019-03-26T05:37:25.475Z,10.83
2019-03-26T05:38:05.880Z,10.81
2019-03-26T05:38:46.398Z,10.81
2019-03-26T05:39:26.759Z,10.86
2019-03-26T05:40:07.116Z,10.9
2019-03-26T05:40:47.724Z,10.87
2019-03-26T05:41:28.131Z,10.73
2019-03-26T05:42:08.576Z,10.84
2019-03-26T05:42:48.947Z,10.86
2019-03-26T05:43:29.357Z,10.84
2019-03-26T05:44:09.779Z,11.01
2019-03-26T05:44:50.206Z,11.11
2019-03-26T05:45:30.586Z,11.09
2019-03-26T05:46:11.005Z,11.16
2019-03-26T05:46:51.417Z,11.11
2019-03-26T05:47:31.834Z,11.06
2019-03-26T05:48:12.236Z,11.05
2019-03-26T05:48:52.663Z,11.17
2019-03-26T05:49:33.100Z,11.08
2019-03-26T05:50:13.517Z,11.13
2019-03-26T05:50:53.934Z,11.17
2019-03-26T05:51:34.331Z,11.2
2019-03-26T05:55:16.988Z,11.23
2019-03-26T05:55:58.923Z,11.12
2019-03-26T05:56:39.338Z,11.21
2019-03-26T05:57:19.746Z,11.23
2019-03-26T05:58:02.205Z,11.21
2019-03-26T05:58:42.608Z,11.38
2019-03-26T05:59:23.024Z,11.3
2019-03-26T06:00:03.470Z,11.36
2019-03-26T06:00:43.878Z,11.35
2019-03-26T06:01:28.141Z,11.28
2019-03-26T06:02:13.696Z,11.38
2019-03-26T06:02:49.037Z,11.39
2019-03-26T06:03:29.477Z,11.41
2019-03-26T06:04:09.899Z,11.33
2019-03-26T06:04:50.307Z,11.45
2019-03-26T06:05:30.719Z,11.48
2019-03-26T06:06:11.192Z,11.56
2019-03-26T06:07:03.879Z,11.53
2019-03-26T06:07:32.035Z,11.51
2019-03-26T06:08:12.394Z,11.57
2019-03-26T06:08:52.801Z,11.53
2019-03-26T06:09:33.338Z,11.54
2019-03-26T06:10:13.714Z,11.57
2019-03-26T06:10:54.129Z,11.49
2019-03-26T06:11:34.614Z,11.59
2019-03-26T06:12:15.003Z,11.6
2019-03-26T06:12:55.429Z,11.53
2019-03-26T06:13:35.815Z,11.42
2019-03-26T06:14:16.233Z,11.36
2019-03-26T06:14:56.632Z,11.38
2019-03-26T06:15:37.100Z,11.3
2019-03-26T06:16:17.455Z,11.33
2019-03-26T06:16:57.868Z,11.33
2019-03-26T06:17:38.250Z,11.26
2019-03-26T06:18:18.664Z,11.33
2019-03-26T06:18:59.087Z,11.31
2019-03-26T06:19:39.481Z,11.26
2019-03-26T06:20:19.884Z,11.28
2019-03-26T06:21:00.289Z,11.33
2019-03-26T06:21:40.730Z,11.16
2019-03-26T06:22:21.928Z,11.19
2019-03-26T06:23:02.797Z,11.13
2019-03-26T06:23:43.610Z,11.23
2019-03-26T06:24:24.060Z,11.33
2019-03-26T06:25:04.532Z,11.36
2019-03-26T06:25:44.890Z,11.33
2019-03-26T06:26:25.303Z,11.45
2019-03-26T06:27:05.884Z,11.33
2019-03-26T06:27:46.238Z,11.33
2019-03-26T06:28:26.778Z,11.28
2019-03-26T06:29:07.175Z,11.26
2019-03-26T06:31:19.807Z,11.17
2019-03-26T06:32:01.925Z,11.17
2019-03-26T06:32:42.527Z,11.17
2019-03-26T06:33:22.962Z,11.23
2019-03-26T06:34:03.335Z,11.13
2019-03-26T06:34:43.918Z,11.16
2019-03-26T06:35:24.262Z,11.03
2019-03-26T06:36:04.701Z,11.06
2019-03-26T06:36:45.091Z,11.08
2019-03-26T06:37:27.124Z,11.11
2019-03-26T06:38:07.690Z,11.02
2019-03-26T06:38:48.111Z,11.09
2019-03-26T06:39:28.635Z,11.16
2019-03-26T06:40:09.215Z,11.17
2019-03-26T06:40:49.659Z,11.19
2019-03-26T06:41:30.043Z,11.27
2019-03-26T06:42:10.450Z,11.27
2019-03-26T06:42:50.865Z,11.23
2019-03-26T06:43:31.275Z,11.3
2019-03-26T06:44:11.627Z,11.31
2019-03-26T06:44:53.874Z,11.38
2019-03-26T06:45:34.263Z,11.36
2019-03-26T06:46:14.919Z,11.31
2019-03-26T06:46:55.365Z,11.41
2019-03-26T06:47:35.819Z,11.46
2019-03-26T06:48:16.210Z,11.46
2019-03-26T06:48:56.678Z,11.45
2019-03-26T06:49:37.093Z,11.44
2019-03-26T06:50:17.495Z,11.48
2019-03-26T06:50:57.903Z,11.53
2019-03-26T06:51:38.313Z,11.57
2019-03-26T06:52:18.743Z,11.46
2019-03-26T06:53:00.749Z,11.59
2019-03-26T06:54:51.774Z,11.72
2019-03-26T06:55:31.573Z,11.64
2019-03-26T06:56:11.970Z,11.67
2019-03-26T06:56:52.363Z,11.82
2019-03-26T06:57:35.672Z,11.85
2019-03-26T06:58:13.417Z,11.81
2019-03-26T06:58:53.800Z,11.85
2019-03-26T06:59:34.215Z,11.72
2019-03-26T07:00:14.618Z,11.77
2019-03-26T07:00:55.006Z,11.72
2019-03-26T07:01:35.386Z,11.75
2019-03-26T07:02:15.831Z,11.82
2019-03-26T07:02:56.201Z,11.77
2019-03-26T07:03:37.458Z,11.85
2019-03-26T07:04:17.843Z,11.85
2019-03-26T07:04:58.255Z,11.85
2019-03-26T07:05:38.677Z,11.81
2019-03-26T07:06:19.189Z,11.9
2019-03-26T07:06:59.602Z,11.96
2019-03-26T07:07:40.023Z,11.9
2019-03-26T07:08:20.463Z,11.96
2019-03-26T07:09:00.856Z,12.04
2019-03-26T07:09:41.378Z,11.97
2019-03-26T07:10:21.799Z,11.96
2019-03-26T07:11:02.211Z,11.81
2019-03-26T07:11:42.703Z,11.9
2019-03-26T07:12:23.579Z,11.88
2019-03-26T07:13:04.072Z,11.93
2019-03-26T07:13:44.569Z,11.9
2019-03-26T07:14:25.069Z,11.88
2019-03-26T07:15:05.538Z,11.9
2019-03-26T07:15:45.916Z,11.87
2019-03-26T07:16:26.375Z,11.94
2019-03-26T07:17:06.701Z,11.88
2019-03-26T07:17:47.242Z,11.87
2019-03-26T07:18:27.658Z,11.85
2019-03-26T07:19:08.065Z,11.81
2019-03-26T07:19:48.513Z,11.77
2019-03-26T07:20:28.840Z,11.79
2019-03-26T07:21:09.247Z,11.74
2019-03-26T07:21:50.167Z,11.93
2019-03-26T07:22:30.207Z,11.81
2019-03-26T07:23:10.587Z,11.75
2019-03-26T07:23:51.036Z,11.78
2019-03-26T07:24:31.458Z,11.69
2019-03-26T07:25:11.878Z,11.66
2019-03-26T07:25:52.292Z,11.74
2019-03-26T07:26:32.792Z,11.82
2019-03-26T07:27:13.183Z,11.79
2019-03-26T07:27:53.590Z,11.84
2019-03-26T07:28:34.092Z,11.96
2019-03-26T07:32:22.097Z,11.98
2019-03-26T07:33:04.073Z,11.97
2019-03-26T07:33:44.785Z,11.93
2019-03-26T07:34:25.249Z,11.98
2019-03-26T07:35:05.695Z,11.87
2019-03-26T07:35:46.052Z,11.93
2019-03-26T07:36:26.409Z,11.93
2019-03-26T07:37:06.847Z,11.97
2019-03-26T07:37:47.242Z,11.96
2019-03-26T07:38:27.653Z,11.98
2019-03-26T07:39:08.082Z,12.03
2019-03-26T07:39:48.544Z,11.98
2019-03-26T07:40:30.676Z,11.96
2019-03-26T07:41:11.074Z,11.88
2019-03-26T07:41:51.528Z,11.79
2019-03-26T07:42:31.968Z,11.84
2019-03-26T07:43:12.357Z,11.82
2019-03-26T07:43:53.023Z,11.88
2019-03-26T07:44:33.740Z,12.01
2019-03-26T07:45:14.143Z,12.07
2019-03-26T07:45:54.595Z,12.07
2019-03-26T07:46:35.028Z,12.07
2019-03-26T07:47:15.559Z,12.12
2019-03-26T07:47:56.149Z,12.04
2019-03-26T07:48:36.552Z,12.15
2019-03-26T07:49:16.974Z,12.19
2019-03-26T07:49:57.425Z,12.11
2019-03-26T07:50:37.789Z,12.29
2019-03-26T07:52:37.158Z,12.37
2019-03-26T07:53:17.542Z,12.31
2019-03-26T07:53:57.941Z,12.37
2019-03-26T07:54:38.336Z,12.37
2019-03-26T07:55:18.791Z,12.33
2019-03-26T07:56:00.923Z,12.31
2019-03-26T07:56:41.480Z,12.34
2019-03-26T07:57:21.907Z,12.29
2019-03-26T07:58:02.273Z,12.26
2019-03-26T07:58:42.717Z,12.26
2019-03-26T07:59:23.119Z,12.34
2019-03-26T08:00:04.184Z,12.29
2019-03-26T08:00:44.576Z,12.36
2019-03-26T08:01:25.048Z,12.38
2019-03-26T08:02:05.795Z,12.43
2019-03-26T08:02:46.297Z,12.33
2019-03-26T08:03:26.768Z,12.46
2019-03-26T08:04:07.174Z,12.43
2019-03-26T08:04:47.607Z,12.33
2019-03-26T08:05:30.219Z,12.37
2019-03-26T08:06:11.782Z,12.44
2019-03-26T08:06:52.215Z,12.44
2019-03-26T08:07:32.907Z,12.37
2019-03-26T08:08:13.430Z,12.33
2019-03-26T08:08:53.853Z,12.33
2019-03-26T08:09:34.313Z,12.31
2019-03-26T08:10:14.901Z,12.26
2019-03-26T08:10:58.603Z,12.31
2019-03-26T08:11:39.784Z,12.38
2019-03-26T08:12:20.162Z,12.43
2019-03-26T08:13:00.602Z,12.49
2019-03-26T08:13:41.175Z,12.34
2019-03-26T08:14:23.123Z,12.43
2019-03-26T08:15:03.528Z,12.34
2019-03-26T08:15:44.444Z,12.31
2019-03-26T08:16:24.877Z,12.37
2019-03-26T08:17:05.274Z,12.43
2019-03-26T08:17:45.874Z,12.43
2019-03-26T08:18:26.557Z,12.36
2019-03-26T08:19:06.998Z,12.36
2019-03-26T08:19:47.413Z,12.43
2019-03-26T08:20:27.830Z,12.48
2019-03-26T08:21:08.266Z,12.43
2019-03-26T08:21:48.727Z,12.46
2019-03-26T08:22:29.155Z,12.31
2019-03-26T08:23:09.557Z,12.4
2019-03-26T08:23:50.321Z,12.37
2019-03-26T08:24:30.852Z,12.4
2019-03-26T08:25:13.777Z,12.3
2019-03-26T08:25:58.317Z,12.3
2019-03-26T08:26:38.911Z,12.23
2019-03-26T08:27:20.555Z,12.37
2019-03-26T08:28:00.365Z,12.33
2019-03-26T08:28:41.165Z,12.38
2019-03-26T08:29:21.863Z,12.44
2019-03-26T08:30:02.566Z,12.51
2019-03-26T08:30:43.246Z,12.51
2019-03-26T08:31:24.010Z,12.49
2019-03-26T08:32:05.602Z,12.58
2019-03-26T08:32:45.833Z,12.66
2019-03-26T08:33:26.626Z,12.61
2019-03-26T08:34:07.446Z,12.62
2019-03-26T08:34:49.556Z,12.61
2019-03-26T08:35:31.046Z,12.54
2019-03-26T08:36:12.169Z,12.55
2019-03-26T08:36:53.024Z,12.59
2019-03-26T08:37:34.131Z,12.58
2019-03-26T08:38:15.715Z,12.56
2019-03-26T08:38:57.122Z,12.55
2019-03-26T08:39:41.250Z,12.55
2019-03-26T08:40:23.368Z,12.51
2019-03-26T08:41:02.338Z,12.55
2019-03-26T08:41:42.935Z,12.56
2019-03-26T08:42:23.619Z,12.41
2019-03-26T08:43:05.590Z,12.54
2019-03-26T08:43:46.081Z,12.56
2019-03-26T08:44:26.621Z,12.56
2019-03-26T08:45:07.982Z,12.52
2019-03-26T08:45:49.207Z,12.59
2019-03-26T08:46:30.589Z,12.61
2019-03-26T08:47:12.125Z,12.58
2019-03-26T08:47:52.906Z,12.58
2019-03-26T08:48:34.443Z,12.58
2019-03-26T08:49:15.603Z,12.63
2019-03-26T08:49:58.548Z,12.7
2019-03-26T08:50:41.631Z,12.66
2019-03-26T08:51:24.467Z,12.73
2019-03-26T08:52:05.059Z,12.84
2019-03-26T08:52:46.596Z,12.91
2019-03-26T08:53:27.573Z,12.81
2019-03-26T08:54:08.119Z,12.87
2019-03-26T08:54:47.993Z,12.94
2019-03-26T08:55:28.735Z,13.16
2019-03-26T08:56:08.903Z,13.29
2019-03-26T08:56:49.735Z,13.5
2019-03-26T08:57:30.141Z,13.57
2019-03-26T08:58:10.531Z,13.73
2019-03-26T08:58:51.015Z,13.75
2019-03-26T08:59:31.449Z,13.87
2019-03-26T09:00:11.827Z,13.91
2019-03-26T09:00:52.268Z,14.16
2019-03-26T09:01:32.757Z,14.35
2019-03-26T09:02:14.153Z,14.53
2019-03-26T09:02:54.589Z,14.63
2019-03-26T09:03:34.988Z,14.85
2019-03-26T09:04:15.380Z,14.91
2019-03-26T09:05:02.356Z,15.09
2019-03-26T09:05:43.383Z,15.16
2019-03-26T09:06:24.029Z,15.15
2019-03-26T09:07:04.784Z,15.34
2019-03-26T09:07:45.264Z,15.52
2019-03-26T09:08:25.976Z,15.64
2019-03-26T09:10:51.439Z,16.06
2019-03-26T09:11:26.505Z,16.07
2019-03-26T09:12:06.916Z,16.13
2019-03-26T09:12:47.350Z,16.18
2019-03-26T09:13:27.798Z,16.14
2019-03-26T09:14:09.540Z,16.29
2019-03-26T09:14:51.874Z,16.32
2019-03-26T09:15:32.377Z,16.37
2019-03-26T09:16:13.569Z,16.29
2019-03-26T09:16:56.798Z,16.32
2019-03-26T09:17:37.180Z,16.27
2019-03-26T09:18:18.037Z,16.32
2019-03-26T09:18:58.535Z,16.27
2019-03-26T09:19:39.692Z,16.37
2019-03-26T09:20:23.993Z,16.34
2019-03-26T09:21:04.515Z,16.42
2019-03-26T09:21:46.207Z,16.34
2019-03-26T09:22:26.833Z,16.25
2019-03-26T09:23:12.137Z,16.1
2019-03-26T09:23:51.140Z,15.89
2019-03-26T09:24:34.670Z,15.77
2019-03-26T09:25:14.452Z,15.58
2019-03-26T09:25:55.037Z,15.44
2019-03-26T09:26:35.381Z,15.41
2019-03-26T09:27:19.919Z,15.35
2019-03-26T09:28:01.192Z,15.31
2019-03-26T09:28:41.619Z,15.19
2019-03-26T09:29:22.008Z,15.12
2019-03-26T09:30:02.480Z,15.09
2019-03-26T09:30:42.928Z,15.04
2019-03-26T09:31:23.379Z,15.03
2019-03-26T09:32:04.462Z,15
2019-03-26T09:32:48.106Z,14.82
2019-03-26T09:33:31.290Z,14.8
2019-03-26T09:34:11.767Z,14.67
2019-03-26T09:34:52.157Z,14.69
2019-03-26T09:35:32.658Z,14.63
2019-03-26T09:36:13.124Z,14.48
2019-03-26T09:36:53.548Z,14.35
2019-03-26T09:37:35.507Z,14.39
2019-03-26T09:38:16.523Z,14.42
2019-03-26T09:38:58.671Z,14.35
2019-03-26T09:39:39.489Z,14.3
2019-03-26T09:40:21.078Z,14.27